sensor_id;sensor_type;location;lat;lon;timestamp;pressure;altitude;pressure_sealevel;temperature;humidity
43115;BME280;28727;50.068;14.452;2022-07-23T00:02:21;99265.34;;;24.26;50.50
43115;BME280;28727;50.068;14.452;2022-07-23T00:04:53;99259.94;;;24.26;50.46
43115;BME280;28727;50.068;14.452;2022-07-23T00:07:25;99254.53;;;24.26;50.09
43115;BME280;28727;50.068;14.452;2022-07-23T00:09:58;99253.72;;;24.25;50.64
43115;BME280;28727;50.068;14.452;2022-07-23T00:12:30;99255.63;;;24.25;50.40
43115;BME280;28727;50.068;14.452;2022-07-23T00:15:04;99263.97;;;24.23;50.69
43115;BME280;28727;50.068;14.452;2022-07-23T00:17:39;99261.28;;;24.23;50.32
43115;BME280;28727;50.068;14.452;2022-07-23T00:20:11;99265.03;;;24.22;50.31
43115;BME280;28727;50.068;14.452;2022-07-23T00:22:50;99259.34;;;24.19;50.41
43115;BME280;28727;50.068;14.452;2022-07-23T00:25:23;99249.59;;;24.18;50.59
43115;BME280;28727;50.068;14.452;2022-07-23T00:28:01;99249.03;;;24.16;50.53
43115;BME280;28727;50.068;14.452;2022-07-23T00:30:33;99255.53;;;24.15;50.85
43115;BME280;28727;50.068;14.452;2022-07-23T00:33:07;99264.94;;;24.12;50.91
43115;BME280;28727;50.068;14.452;2022-07-23T00:35:42;99260.59;;;24.11;51.14
43115;BME280;28727;50.068;14.452;2022-07-23T00:38:13;99255.72;;;24.03;50.96
43115;BME280;28727;50.068;14.452;2022-07-23T00:40:47;99248.66;;;23.97;50.80
43115;BME280;28727;50.068;14.452;2022-07-23T00:43:25;99245.38;;;23.95;51.24
43115;BME280;28727;50.068;14.452;2022-07-23T00:45:57;99245.63;;;23.93;51.34
43115;BME280;28727;50.068;14.452;2022-07-23T00:48:28;99234.03;;;23.93;51.45
43115;BME280;28727;50.068;14.452;2022-07-23T00:51:00;99240.47;;;23.92;51.18
43115;BME280;28727;50.068;14.452;2022-07-23T00:53:32;99235.38;;;23.90;51.12
43115;BME280;28727;50.068;14.452;2022-07-23T00:56:04;99231.84;;;23.90;51.61
43115;BME280;28727;50.068;14.452;2022-07-23T00:58:39;99223.19;;;23.88;51.60
43115;BME280;28727;50.068;14.452;2022-07-23T01:01:12;99230.47;;;23.87;52.05
43115;BME280;28727;50.068;14.452;2022-07-23T01:03:44;99231.28;;;23.88;51.98
43115;BME280;28727;50.068;14.452;2022-07-23T01:06:16;99234.81;;;23.88;52.00
43115;BME280;28727;50.068;14.452;2022-07-23T01:08:55;99230.47;;;23.87;52.01
43115;BME280;28727;50.068;14.452;2022-07-23T01:11:27;99235.88;;;23.87;52.27
43115;BME280;28727;50.068;14.452;2022-07-23T01:13:59;99234.50;;;23.85;52.52
43115;BME280;28727;50.068;14.452;2022-07-23T01:16:39;99236.41;;;23.84;52.06
43115;BME280;28727;50.068;14.452;2022-07-23T01:19:12;99231.25;;;23.83;52.46
43115;BME280;28727;50.068;14.452;2022-07-23T01:21:46;99224.47;;;23.80;52.70
43115;BME280;28727;50.068;14.452;2022-07-23T01:24:19;99223.94;;;23.78;52.89
43115;BME280;28727;50.068;14.452;2022-07-23T01:27:03;99219.03;;;23.75;52.71
43115;BME280;28727;50.068;14.452;2022-07-23T01:29:39;99209.84;;;23.71;52.48
43115;BME280;28727;50.068;14.452;2022-07-23T01:32:17;99202.81;;;23.70;52.54
43115;BME280;28727;50.068;14.452;2022-07-23T01:34:48;99196.59;;;23.70;52.40
43115;BME280;28727;50.068;14.452;2022-07-23T01:37:20;99191.47;;;23.68;52.52
43115;BME280;28727;50.068;14.452;2022-07-23T01:39:59;99185.53;;;23.66;52.65
43115;BME280;28727;50.068;14.452;2022-07-23T01:42:33;99189.53;;;23.63;52.66
43115;BME280;28727;50.068;14.452;2022-07-23T01:45:07;99193.59;;;23.61;52.68
43115;BME280;28727;50.068;14.452;2022-07-23T01:47:40;99195.22;;;23.62;52.73
43115;BME280;28727;50.068;14.452;2022-07-23T01:50:12;99187.38;;;23.60;53.09
43115;BME280;28727;50.068;14.452;2022-07-23T01:53:06;99191.13;;;23.59;53.11
43115;BME280;28727;50.068;14.452;2022-07-23T01:55:43;99190.56;;;23.57;53.31
43115;BME280;28727;50.068;14.452;2022-07-23T01:58:16;99181.94;;;23.55;53.38
43115;BME280;28727;50.068;14.452;2022-07-23T02:00:55;99184.88;;;23.54;53.33
43115;BME280;28727;50.068;14.452;2022-07-23T02:03:28;99180.28;;;23.49;53.48
43115;BME280;28727;50.068;14.452;2022-07-23T02:06:00;99174.31;;;23.47;53.56
43115;BME280;28727;50.068;14.452;2022-07-23T02:08:33;99183.47;;;23.46;54.05
43115;BME280;28727;50.068;14.452;2022-07-23T02:11:06;99178.56;;;23.43;53.81
43115;BME280;28727;50.068;14.452;2022-07-23T02:13:40;99181.75;;;23.40;53.93
43115;BME280;28727;50.068;14.452;2022-07-23T02:16:15;99192.25;;;23.37;54.61
43115;BME280;28727;50.068;14.452;2022-07-23T02:18:48;99185.75;;;23.33;54.16
43115;BME280;28727;50.068;14.452;2022-07-23T02:21:19;99181.44;;;23.32;54.33
43115;BME280;28727;50.068;14.452;2022-07-23T02:23:54;99184.38;;;23.30;54.78
43115;BME280;28727;50.068;14.452;2022-07-23T02:26:26;99183.00;;;23.27;54.75
43115;BME280;28727;50.068;14.452;2022-07-23T02:29:02;99179.19;;;23.23;55.19
43115;BME280;28727;50.068;14.452;2022-07-23T02:31:39;99181.25;;;23.16;55.47
43115;BME280;28727;50.068;14.452;2022-07-23T02:34:13;99181.53;;;23.15;55.05
43115;BME280;28727;50.068;14.452;2022-07-23T02:36:47;99186.00;;;23.04;55.71
43115;BME280;28727;50.068;14.452;2022-07-23T02:39:19;99183.00;;;23.01;55.91
43115;BME280;28727;50.068;14.452;2022-07-23T02:41:51;99188.38;;;23.01;56.18
43115;BME280;28727;50.068;14.452;2022-07-23T02:44:23;99187.56;;;23.00;56.16
43115;BME280;28727;50.068;14.452;2022-07-23T02:46:57;99184.31;;;22.98;56.58
43115;BME280;28727;50.068;14.452;2022-07-23T02:49:29;99180.25;;;22.96;56.27
43115;BME280;28727;50.068;14.452;2022-07-23T02:52:01;99184.78;;;22.90;56.61
43115;BME280;28727;50.068;14.452;2022-07-23T02:54:37;99196.28;;;22.85;57.00
43115;BME280;28727;50.068;14.452;2022-07-23T02:57:09;99186.59;;;22.84;56.73
43115;BME280;28727;50.068;14.452;2022-07-23T02:59:43;99190.91;;;22.85;57.22
43115;BME280;28727;50.068;14.452;2022-07-23T03:02:15;99186.59;;;22.84;57.22
43115;BME280;28727;50.068;14.452;2022-07-23T03:04:47;99186.59;;;22.84;57.13
43115;BME280;28727;50.068;14.452;2022-07-23T03:07:18;99179.59;;;22.83;57.11
43115;BME280;28727;50.068;14.452;2022-07-23T03:09:50;99181.47;;;22.83;57.32
43115;BME280;28727;50.068;14.452;2022-07-23T03:12:22;99175.00;;;22.84;56.97
43115;BME280;28727;50.068;14.452;2022-07-23T03:14:54;99174.69;;;22.80;57.40
43115;BME280;28727;50.068;14.452;2022-07-23T03:17:26;99170.13;;;22.81;57.37
43115;BME280;28727;50.068;14.452;2022-07-23T03:19:58;99169.56;;;22.79;57.54
43115;BME280;28727;50.068;14.452;2022-07-23T03:22:29;99171.13;;;22.75;57.59
43115;BME280;28727;50.068;14.452;2022-07-23T03:25:01;99170.06;;;22.76;57.42
43115;BME280;28727;50.068;14.452;2022-07-23T03:27:41;99162.50;;;22.73;57.71
43115;BME280;28727;50.068;14.452;2022-07-23T03:30:14;99158.38;;;22.70;57.74
43115;BME280;28727;50.068;14.452;2022-07-23T03:35:19;99135.16;;;22.64;57.92
43115;BME280;28727;50.068;14.452;2022-07-23T03:38:10;99130.59;;;22.65;57.75
43115;BME280;28727;50.068;14.452;2022-07-23T03:40:47;99127.66;;;22.66;57.86
43115;BME280;28727;50.068;14.452;2022-07-23T03:43:21;99130.81;;;22.63;57.39
43115;BME280;28727;50.068;14.452;2022-07-23T03:45:59;99132.72;;;22.63;57.03
43115;BME280;28727;50.068;14.452;2022-07-23T03:48:30;99147.56;;;22.65;57.06
43115;BME280;28727;50.068;14.452;2022-07-23T03:51:03;99150.50;;;22.64;57.32
43115;BME280;28727;50.068;14.452;2022-07-23T03:53:40;99147.19;;;22.57;58.11
43115;BME280;28727;50.068;14.452;2022-07-23T03:56:15;99159.53;;;22.53;58.19
43115;BME280;28727;50.068;14.452;2022-07-23T03:58:48;99175.38;;;22.49;58.36
43115;BME280;28727;50.068;14.452;2022-07-23T04:01:20;99174.22;;;22.45;58.23
43115;BME280;28727;50.068;14.452;2022-07-23T04:03:55;99173.28;;;22.34;58.67
43115;BME280;28727;50.068;14.452;2022-07-23T04:06:27;99178.66;;;22.13;58.85
43115;BME280;28727;50.068;14.452;2022-07-23T04:09:03;99190.56;;;22.00;59.59
43115;BME280;28727;50.068;14.452;2022-07-23T04:11:37;99206.72;;;22.00;59.44
43115;BME280;28727;50.068;14.452;2022-07-23T04:14:09;99197.81;;;21.99;59.13
43115;BME280;28727;50.068;14.452;2022-07-23T04:16:41;99182.75;;;21.98;59.24
43115;BME280;28727;50.068;14.452;2022-07-23T04:19:17;99184.88;;;21.96;59.81
43115;BME280;28727;50.068;14.452;2022-07-23T04:22:06;99185.31;;;21.93;59.39
43115;BME280;28727;50.068;14.452;2022-07-23T04:24:40;99167.66;;;21.97;59.06
43115;BME280;28727;50.068;14.452;2022-07-23T04:27:31;99159.47;;;22.09;58.83
43115;BME280;28727;50.068;14.452;2022-07-23T04:30:05;99164.84;;;22.09;59.06
43115;BME280;28727;50.068;14.452;2022-07-23T04:32:37;99159.31;;;22.16;58.65
43115;BME280;28727;50.068;14.452;2022-07-23T04:35:16;99145.13;;;22.20;58.52
43115;BME280;28727;50.068;14.452;2022-07-23T04:37:55;99132.84;;;22.29;58.17
43115;BME280;28727;50.068;14.452;2022-07-23T04:40:30;99143.91;;;22.33;57.94
43115;BME280;28727;50.068;14.452;2022-07-23T04:43:01;99145.00;;;22.32;57.79
43115;BME280;28727;50.068;14.452;2022-07-23T04:45:34;99147.19;;;22.35;57.87
43115;BME280;28727;50.068;14.452;2022-07-23T04:48:09;99131.16;;;22.45;57.71
43115;BME280;28727;50.068;14.452;2022-07-23T04:50:41;99135.53;;;22.51;57.47
43115;BME280;28727;50.068;14.452;2022-07-23T04:53:21;99142.31;;;22.54;57.62
43115;BME280;28727;50.068;14.452;2022-07-23T04:55:55;99150.88;;;22.51;57.48
43115;BME280;28727;50.068;14.452;2022-07-23T04:58:38;99158.41;;;22.49;57.85
43115;BME280;28727;50.068;14.452;2022-07-23T05:01:13;99170.00;;;22.49;57.75
43115;BME280;28727;50.068;14.452;2022-07-23T05:03:45;99167.78;;;22.46;57.83
43115;BME280;28727;50.068;14.452;2022-07-23T05:06:17;99162.91;;;22.43;58.02
43115;BME280;28727;50.068;14.452;2022-07-23T05:08:49;99165.66;;;22.48;57.71
43115;BME280;28727;50.068;14.452;2022-07-23T05:11:28;99174.50;;;22.43;58.12
43115;BME280;28727;50.068;14.452;2022-07-23T05:14:00;99185.38;;;22.32;57.91
43115;BME280;28727;50.068;14.452;2022-07-23T05:16:32;99181.41;;;22.18;58.46
43115;BME280;28727;50.068;14.452;2022-07-23T05:19:10;99206.38;;;22.13;58.49
43115;BME280;28727;50.068;14.452;2022-07-23T05:21:46;99217.38;;;22.12;58.65
43115;BME280;28727;50.068;14.452;2022-07-23T05:24:20;99234.09;;;22.14;58.68
43115;BME280;28727;50.068;14.452;2022-07-23T05:26:53;99257.25;;;22.15;58.29
43115;BME280;28727;50.068;14.452;2022-07-23T05:29:29;99233.44;;;22.07;57.96
43115;BME280;28727;50.068;14.452;2022-07-23T05:32:01;99215.59;;;22.00;58.39
43115;BME280;28727;50.068;14.452;2022-07-23T05:34:34;99216.88;;;21.98;58.47
43115;BME280;28727;50.068;14.452;2022-07-23T05:37:06;99226.13;;;22.02;59.08
43115;BME280;28727;50.068;14.452;2022-07-23T05:39:38;99219.50;;;22.10;59.81
43115;BME280;28727;50.068;14.452;2022-07-23T05:42:10;99222.34;;;22.20;59.93
43115;BME280;28727;50.068;14.452;2022-07-23T05:44:41;99206.13;;;22.15;59.53
43115;BME280;28727;50.068;14.452;2022-07-23T05:47:23;99189.88;;;22.26;59.23
43115;BME280;28727;50.068;14.452;2022-07-23T05:49:55;99191.75;;;22.26;59.06
43115;BME280;28727;50.068;14.452;2022-07-23T05:52:58;99199.66;;;22.32;59.22
43115;BME280;28727;50.068;14.452;2022-07-23T05:55:50;99218.28;;;22.39;58.93
43115;BME280;28727;50.068;14.452;2022-07-23T05:58:22;99220.25;;;22.43;58.70
43115;BME280;28727;50.068;14.452;2022-07-23T06:00:57;99202.84;;;22.51;58.76
43115;BME280;28727;50.068;14.452;2022-07-23T06:03:28;99191.06;;;22.57;58.48
43115;BME280;28727;50.068;14.452;2022-07-23T06:06:01;99189.53;;;22.61;58.69
43115;BME280;28727;50.068;14.452;2022-07-23T06:08:40;99169.59;;;22.62;58.32
43115;BME280;28727;50.068;14.452;2022-07-23T06:11:15;99188.72;;;22.61;58.79
43115;BME280;28727;50.068;14.452;2022-07-23T06:13:47;99223.53;;;22.67;58.81
43115;BME280;28727;50.068;14.452;2022-07-23T06:16:19;99240.09;;;22.76;59.37
43115;BME280;28727;50.068;14.452;2022-07-23T06:18:51;99223.94;;;22.76;60.22
43115;BME280;28727;50.068;14.452;2022-07-23T06:21:24;99243.34;;;22.78;60.47
43115;BME280;28727;50.068;14.452;2022-07-23T06:24:19;99250.88;;;22.76;61.41
43115;BME280;28727;50.068;14.452;2022-07-23T06:26:53;99244.66;;;22.75;61.50
43115;BME280;28727;50.068;14.452;2022-07-23T06:29:28;99249.00;;;22.76;61.80
43115;BME280;28727;50.068;14.452;2022-07-23T06:32:00;99227.75;;;22.80;62.29
43115;BME280;28727;50.068;14.452;2022-07-23T06:34:32;99220.28;;;22.87;62.35
43115;BME280;28727;50.068;14.452;2022-07-23T06:37:06;99217.66;;;22.92;62.62
43115;BME280;28727;50.068;14.452;2022-07-23T06:39:42;99219.59;;;22.97;61.98
43115;BME280;28727;50.068;14.452;2022-07-23T06:42:14;99220.22;;;23.04;62.10
43115;BME280;28727;50.068;14.452;2022-07-23T06:44:51;99211.56;;;23.02;61.74
43115;BME280;28727;50.068;14.452;2022-07-23T06:47:23;99203.50;;;23.02;62.68
43115;BME280;28727;50.068;14.452;2022-07-23T06:50:02;99196.72;;;22.99;61.99
43115;BME280;28727;50.068;14.452;2022-07-23T06:52:34;99199.94;;;22.96;61.46
43115;BME280;28727;50.068;14.452;2022-07-23T06:55:15;99204.00;;;22.99;61.52
43115;BME280;28727;50.068;14.452;2022-07-23T06:57:49;99202.44;;;23.03;60.71
43115;BME280;28727;50.068;14.452;2022-07-23T07:00:20;99197.09;;;23.08;61.01
43115;BME280;28727;50.068;14.452;2022-07-23T07:02:53;99207.97;;;23.18;61.01
43115;BME280;28727;50.068;14.452;2022-07-23T07:05:25;99208.59;;;23.25;60.48
43115;BME280;28727;50.068;14.452;2022-07-23T07:08:03;99206.19;;;23.28;60.75
43115;BME280;28727;50.068;14.452;2022-07-23T07:10:35;99209.13;;;23.27;61.18
43115;BME280;28727;50.068;14.452;2022-07-23T07:13:07;99209.13;;;23.27;60.44
43115;BME280;28727;50.068;14.452;2022-07-23T07:15:39;99214.53;;;23.27;60.51
43115;BME280;28727;50.068;14.452;2022-07-23T07:18:21;99225.63;;;23.31;60.72
43115;BME280;28727;50.068;14.452;2022-07-23T07:20:53;99231.34;;;23.39;60.85
43115;BME280;28727;50.068;14.452;2022-07-23T07:23:27;99233.84;;;23.46;61.68
43115;BME280;28727;50.068;14.452;2022-07-23T07:26:01;99237.97;;;23.48;62.65
43115;BME280;28727;50.068;14.452;2022-07-23T07:28:33;99251.50;;;23.53;61.65
43115;BME280;28727;50.068;14.452;2022-07-23T07:31:05;99243.00;;;23.66;60.78
43115;BME280;28727;50.068;14.452;2022-07-23T07:33:36;99244.44;;;23.79;60.05
43115;BME280;28727;50.068;14.452;2022-07-23T07:36:08;99230.56;;;23.97;59.73
43115;BME280;28727;50.068;14.452;2022-07-23T07:38:40;99237.94;;;24.12;59.28
43115;BME280;28727;50.068;14.452;2022-07-23T07:41:13;99234.56;;;24.27;59.36
43115;BME280;28727;50.068;14.452;2022-07-23T07:43:45;99236.81;;;24.45;59.26
43115;BME280;28727;50.068;14.452;2022-07-23T07:46:16;99233.34;;;24.44;59.50
43115;BME280;28727;50.068;14.452;2022-07-23T07:48:50;99234.19;;;24.50;59.58
43115;BME280;28727;50.068;14.452;2022-07-23T07:51:28;99231.28;;;24.67;58.78
43115;BME280;28727;50.068;14.452;2022-07-23T07:54:01;99240.50;;;24.76;57.81
43115;BME280;28727;50.068;14.452;2022-07-23T07:56:38;99242.69;;;24.79;57.58
43115;BME280;28727;50.068;14.452;2022-07-23T07:59:14;99249.13;;;24.73;57.61
43115;BME280;28727;50.068;14.452;2022-07-23T08:01:46;99254.44;;;24.53;58.20
43115;BME280;28727;50.068;14.452;2022-07-23T08:04:18;99254.16;;;24.49;57.93
43115;BME280;28727;50.068;14.452;2022-07-23T08:06:50;99254.44;;;24.53;57.81
43115;BME280;28727;50.068;14.452;2022-07-23T08:09:24;99249.97;;;24.73;57.46
43115;BME280;28727;50.068;14.452;2022-07-23T08:11:57;99250.06;;;24.99;56.44
43115;BME280;28727;50.068;14.452;2022-07-23T08:14:28;99247.72;;;25.22;55.28
43115;BME280;28727;50.068;14.452;2022-07-23T08:17:00;99246.91;;;25.22;54.79
43115;BME280;28727;50.068;14.452;2022-07-23T08:19:45;99246.09;;;25.21;55.36
43115;BME280;28727;50.068;14.452;2022-07-23T08:22:21;99239.91;;;25.36;55.26
43115;BME280;28727;50.068;14.452;2022-07-23T08:24:53;99228.88;;;25.83;53.65
43115;BME280;28727;50.068;14.452;2022-07-23T08:27:24;99238.84;;;26.33;52.79
43115;BME280;28727;50.068;14.452;2022-07-23T08:29:56;99240.66;;;26.73;51.58
43115;BME280;28727;50.068;14.452;2022-07-23T08:32:31;99240.91;;;27.36;51.35
43115;BME280;28727;50.068;14.452;2022-07-23T08:35:17;99236.75;;;27.88;49.44
43115;BME280;28727;50.068;14.452;2022-07-23T08:37:49;99239.28;;;28.13;48.46
43115;BME280;28727;50.068;14.452;2022-07-23T08:40:21;99239.81;;;28.15;47.81
43115;BME280;28727;50.068;14.452;2022-07-23T08:42:53;99240.25;;;28.22;48.17
43115;BME280;28727;50.068;14.452;2022-07-23T08:45:26;99237.97;;;28.34;46.72
43115;BME280;28727;50.068;14.452;2022-07-23T08:47:58;99243.13;;;28.60;46.24
43115;BME280;28727;50.068;14.452;2022-07-23T08:50:34;99245.69;;;28.51;45.60
43115;BME280;28727;50.068;14.452;2022-07-23T08:53:11;99236.50;;;28.18;46.59
43115;BME280;28727;50.068;14.452;2022-07-23T08:55:45;99239.03;;;28.09;47.01
43115;BME280;28727;50.068;14.452;2022-07-23T08:58:17;99239.19;;;28.23;47.10
43115;BME280;28727;50.068;14.452;2022-07-23T09:00:49;99235.97;;;28.16;46.63
43115;BME280;28727;50.068;14.452;2022-07-23T09:03:23;99233.84;;;28.13;47.39
43115;BME280;28727;50.068;14.452;2022-07-23T09:05:57;99236.06;;;28.35;47.06
43115;BME280;28727;50.068;14.452;2022-07-23T09:08:36;99235.34;;;28.77;46.56
43115;BME280;28727;50.068;14.452;2022-07-23T09:11:10;99231.16;;;29.08;45.38
43115;BME280;28727;50.068;14.452;2022-07-23T09:13:52;99229.41;;;29.36;44.22
43115;BME280;28727;50.068;14.452;2022-07-23T09:16:28;99224.50;;;29.38;44.21
43115;BME280;28727;50.068;14.452;2022-07-23T09:19:03;99224.97;;;29.59;43.51
43115;BME280;28727;50.068;14.452;2022-07-23T09:21:38;99218.72;;;30.09;42.54
43115;BME280;28727;50.068;14.452;2022-07-23T09:24:12;99221.59;;;30.45;41.79
43115;BME280;28727;50.068;14.452;2022-07-23T09:26:48;99211.50;;;30.73;39.68
43115;BME280;28727;50.068;14.452;2022-07-23T09:29:23;99220.16;;;30.89;38.09
43115;BME280;28727;50.068;14.452;2022-07-23T09:32:01;99215.13;;;30.82;39.13
43115;BME280;28727;50.068;14.452;2022-07-23T09:34:37;99210.59;;;30.78;38.31
43115;BME280;28727;50.068;14.452;2022-07-23T09:37:19;99209.69;;;30.69;38.78
43115;BME280;28727;50.068;14.452;2022-07-23T09:39:51;99208.09;;;30.68;39.05
43115;BME280;28727;50.068;14.452;2022-07-23T09:42:36;99205.34;;;30.68;40.02
43115;BME280;28727;50.068;14.452;2022-07-23T09:45:11;99206.25;;;30.77;39.63
43115;BME280;28727;50.068;14.452;2022-07-23T09:47:46;99210.41;;;30.61;40.37
43115;BME280;28727;50.068;14.452;2022-07-23T09:50:19;99219.94;;;30.31;39.10
43115;BME280;28727;50.068;14.452;2022-07-23T09:53:03;99222.31;;;29.91;39.65
43115;BME280;28727;50.068;14.452;2022-07-23T09:55:38;99224.16;;;29.58;40.08
43115;BME280;28727;50.068;14.452;2022-07-23T09:58:13;99226.69;;;29.55;39.29
43115;BME280;28727;50.068;14.452;2022-07-23T10:00:47;99225.34;;;29.52;39.35
43115;BME280;28727;50.068;14.452;2022-07-23T10:03:23;99229.25;;;29.46;38.86
43115;BME280;28727;50.068;14.452;2022-07-23T10:06:17;99227.06;;;29.48;38.91
43115;BME280;28727;50.068;14.452;2022-07-23T10:09:08;99224.56;;;29.84;39.28
43115;BME280;28727;50.068;14.452;2022-07-23T10:12:09;99220.63;;;30.23;39.09
43115;BME280;28727;50.068;14.452;2022-07-23T10:15:05;99213.53;;;30.68;38.58
43115;BME280;28727;50.068;14.452;2022-07-23T10:17:42;99210.47;;;31.10;37.72
43115;BME280;28727;50.068;14.452;2022-07-23T10:20:14;99204.53;;;31.66;37.76
43115;BME280;28727;50.068;14.452;2022-07-23T10:23:10;99206.38;;;32.02;36.07
43115;BME280;28727;50.068;14.452;2022-07-23T10:26:03;99191.13;;;32.40;34.31
43115;BME280;28727;50.068;14.452;2022-07-23T10:31:31;99201.25;;;32.79;33.21
43115;BME280;28727;50.068;14.452;2022-07-23T10:37:32;99192.88;;;32.93;34.24
43115;BME280;28727;50.068;14.452;2022-07-23T10:40:19;99193.38;;;32.95;32.75
43115;BME280;28727;50.068;14.452;2022-07-23T10:42:53;99198.88;;;32.86;32.22
43115;BME280;28727;50.068;14.452;2022-07-23T10:45:34;99191.94;;;32.80;33.44
43115;BME280;28727;50.068;14.452;2022-07-23T10:48:17;99184.75;;;33.19;32.21
43115;BME280;28727;50.068;14.452;2022-07-23T10:51:11;99188.09;;;33.59;32.38
43115;BME280;28727;50.068;14.452;2022-07-23T10:59:30;99186.31;;;33.89;32.06
43115;BME280;28727;50.068;14.452;2022-07-23T11:02:22;99171.09;;;34.00;32.50
43115;BME280;28727;50.068;14.452;2022-07-23T11:13:41;99175.78;;;33.99;31.89
43115;BME280;28727;50.068;14.452;2022-07-23T11:16:23;99148.84;;;34.10;31.64
43115;BME280;28727;50.068;14.452;2022-07-23T11:19:05;99137.19;;;34.22;31.22
43115;BME280;28727;50.068;14.452;2022-07-23T11:21:41;99138.97;;;34.47;29.57
43115;BME280;28727;50.068;14.452;2022-07-23T11:24:15;99133.75;;;34.63;30.43
43115;BME280;28727;50.068;14.452;2022-07-23T11:26:59;99131.91;;;34.46;29.97
43115;BME280;28727;50.068;14.452;2022-07-23T11:29:37;99130.53;;;34.31;30.55
43115;BME280;28727;50.068;14.452;2022-07-23T11:32:28;99120.91;;;34.17;30.53
43115;BME280;28727;50.068;14.452;2022-07-23T11:35:00;99133.63;;;34.12;31.07
43115;BME280;28727;50.068;14.452;2022-07-23T11:37:38;99139.69;;;33.89;29.91
43115;BME280;28727;50.068;14.452;2022-07-23T11:40:15;99144.09;;;33.64;30.96
43115;BME280;28727;50.068;14.452;2022-07-23T11:43:02;99152.19;;;33.52;31.96
43115;BME280;28727;50.068;14.452;2022-07-23T11:46:00;99191.84;;;33.37;31.96
43115;BME280;28727;50.068;14.452;2022-07-23T11:48:32;99195.19;;;33.08;30.69
43115;BME280;28727;50.068;14.452;2022-07-23T11:51:25;99188.38;;;31.56;31.25
43115;BME280;28727;50.068;14.452;2022-07-23T11:54:05;99188.47;;;30.66;31.47
43115;BME280;28727;50.068;14.452;2022-07-23T11:56:55;99191.81;;;30.63;31.28
43115;BME280;28727;50.068;14.452;2022-07-23T11:59:53;99199.91;;;30.54;31.64
43115;BME280;28727;50.068;14.452;2022-07-23T12:02:26;99198.59;;;30.05;32.12
43115;BME280;28727;50.068;14.452;2022-07-23T12:04:59;99212.91;;;29.46;32.85
43115;BME280;28727;50.068;14.452;2022-07-23T12:10:30;99263.03;;;28.55;34.49
43115;BME280;28727;50.068;14.452;2022-07-23T12:13:07;99236.66;;;28.32;35.40
43115;BME280;28727;50.068;14.452;2022-07-23T12:15:52;99206.75;;;28.03;36.15
43115;BME280;28727;50.068;14.452;2022-07-23T12:18:27;99202.50;;;27.58;37.19
43115;BME280;28727;50.068;14.452;2022-07-23T12:21:03;99204.59;;;27.32;38.48
43115;BME280;28727;50.068;14.452;2022-07-23T12:23:38;99210.63;;;27.19;39.94
43115;BME280;28727;50.068;14.452;2022-07-23T12:26:10;99217.50;;;27.01;40.96
43115;BME280;28727;50.068;14.452;2022-07-23T12:28:51;99228.13;;;26.93;42.25
43115;BME280;28727;50.068;14.452;2022-07-23T12:31:27;99234.09;;;26.95;42.38
43115;BME280;28727;50.068;14.452;2022-07-23T12:33:59;99232.97;;;27.01;42.90
43115;BME280;28727;50.068;14.452;2022-07-23T12:36:38;99226.19;;;26.98;43.96
43115;BME280;28727;50.068;14.452;2022-07-23T12:39:32;99218.31;;;27.07;44.44
43115;BME280;28727;50.068;14.452;2022-07-23T12:42:11;99212.78;;;27.22;43.98
43115;BME280;28727;50.068;14.452;2022-07-23T12:45:09;99211.72;;;27.18;44.23
43115;BME280;28727;50.068;14.452;2022-07-23T12:48:01;99219.81;;;27.23;44.99
43115;BME280;28727;50.068;14.452;2022-07-23T12:50:49;99206.22;;;27.28;44.91
43115;BME280;28727;50.068;14.452;2022-07-23T12:53:30;99225.22;;;27.28;45.34
43115;BME280;28727;50.068;14.452;2022-07-23T13:01:36;99267.34;;;27.20;46.81
43115;BME280;28727;50.068;14.452;2022-07-23T13:06:58;99272.88;;;26.90;46.99
43115;BME280;28727;50.068;14.452;2022-07-23T13:09:32;99263.94;;;26.89;46.61
43115;BME280;28727;50.068;14.452;2022-07-23T13:12:15;99263.06;;;26.99;46.23
43115;BME280;28727;50.068;14.452;2022-07-23T13:14:46;99261.13;;;27.10;46.33
43115;BME280;28727;50.068;14.452;2022-07-23T13:17:18;99251.28;;;27.24;45.71
43115;BME280;28727;50.068;14.452;2022-07-23T13:19:51;99245.72;;;27.49;45.53
43115;BME280;28727;50.068;14.452;2022-07-23T13:22:24;99240.59;;;27.82;44.48
43115;BME280;28727;50.068;14.452;2022-07-23T13:24:55;99236.81;;;28.11;43.03
43115;BME280;28727;50.068;14.452;2022-07-23T13:27:27;99237.69;;;28.36;41.96
43115;BME280;28727;50.068;14.452;2022-07-23T13:30:00;99221.38;;;28.60;41.50
43115;BME280;28727;50.068;14.452;2022-07-23T13:32:33;99219.50;;;28.84;40.03
43115;BME280;28727;50.068;14.452;2022-07-23T13:35:07;99223.13;;;28.98;39.54
43115;BME280;28727;50.068;14.452;2022-07-23T13:37:42;99213.84;;;28.99;40.88
43115;BME280;28727;50.068;14.452;2022-07-23T13:40:15;99219.59;;;28.98;39.92
43115;BME280;28727;50.068;14.452;2022-07-23T13:42:49;99220.16;;;28.95;41.16
43115;BME280;28727;50.068;14.452;2022-07-23T13:45:20;99232.53;;;29.06;41.25
43115;BME280;28727;50.068;14.452;2022-07-23T13:47:58;99225.28;;;29.20;41.97
43115;BME280;28727;50.068;14.452;2022-07-23T13:50:30;99226.38;;;29.19;41.94
43115;BME280;28727;50.068;14.452;2022-07-23T13:53:26;99231.16;;;29.27;42.33
43115;BME280;28727;50.068;14.452;2022-07-23T13:55:57;99228.44;;;29.27;42.62
43115;BME280;28727;50.068;14.452;2022-07-23T13:58:29;99236.06;;;29.25;43.03
43115;BME280;28727;50.068;14.452;2022-07-23T14:01:21;99239.44;;;29.17;43.19
43115;BME280;28727;50.068;14.452;2022-07-23T14:03:52;99239.03;;;29.10;43.57
43115;BME280;28727;50.068;14.452;2022-07-23T14:06:24;99244.81;;;29.22;42.44
43115;BME280;28727;50.068;14.452;2022-07-23T14:09:03;99253.50;;;29.24;42.09
43115;BME280;28727;50.068;14.452;2022-07-23T14:11:39;99246.03;;;29.35;41.77